Time;durP1;ratioP1;P1;durP2;ratioP2;P2;SDS_P1;SDS_P2;PMS_P1;PMS_P2;Temp;Humidity;BMP_temperature;BMP_pressure;BME280_temperature;BME280_humidity;BME280_pressure;Samples;Min_cycle;Max_cycle;Signal;HPM_P1;HPM_P2
2023/08/22 00:02:04;;;;;;;3.23;1.80;;;21.10;99.90;;;;;;5114068;28;20298;-69
2023/08/22 00:04:31;;;;;;;6.07;1.60;;;21.30;99.90;;;;;;5113358;28;20214;-69
2023/08/22 00:06:58;;;;;;;4.87;1.70;;;21.00;99.90;;;;;;5113839;28;20550;-70
2023/08/22 00:09:26;;;;;;;5.23;2.33;;;19.40;99.90;;;;;;5113694;28;20186;-70
2023/08/22 00:11:53;;;;;;;4.57;1.93;;;19.30;99.90;;;;;;5113189;28;20185;-70
2023/08/22 00:14:20;;;;;;;4.20;1.63;;;20.30;99.90;;;;;;5113176;28;20228;-71
2023/08/22 00:16:48;;;;;;;3.27;1.90;;;21.20;99.90;;;;;;5113613;28;20665;-69
2023/08/22 00:19:15;;;;;;;4.90;2.13;;;21.80;99.90;;;;;;5113079;28;20225;-70
2023/08/22 00:21:43;;;;;;;8.33;2.17;;;21.40;99.90;;;;;;5113413;28;20181;-70
2023/08/22 00:24:10;;;;;;;6.67;1.90;;;22.10;99.90;;;;;;5114219;28;20692;-69
2023/08/22 00:26:37;;;;;;;5.57;2.50;;;22.30;99.90;;;;;;5114808;28;20202;-70
2023/08/22 00:29:06;;;;;;;9.87;2.60;;;22.40;99.90;;;;;;5114596;28;20173;-71
2023/08/22 00:31:33;;;;;;;5.70;2.20;;;22.70;99.90;;;;;;5114389;28;20178;-70
2023/08/22 00:34:02;;;;;;;7.47;2.33;;;22.00;99.90;;;;;;5096771;28;20174;-70
2023/08/22 00:36:29;;;;;;;4.80;2.10;;;22.60;99.90;;;;;;5092943;28;20190;-70
2023/08/22 00:38:57;;;;;;;5.60;2.20;;;23.40;99.90;;;;;;5112578;28;20178;-70
2023/08/22 00:41:25;;;;;;;6.23;1.90;;;23.80;99.90;;;;;;5112338;28;20182;-70
2023/08/22 00:43:52;;;;;;;19.50;2.10;;;23.70;99.90;;;;;;5093810;28;20205;-71
2023/08/22 00:46:20;;;;;;;4.67;1.90;;;24.30;99.90;;;;;;5111250;28;20210;-70
2023/08/22 00:48:47;;;;;;;3.33;1.43;;;24.40;99.90;;;;;;5110835;28;20194;-70
2023/08/22 00:51:16;;;;;;;7.90;2.20;;;24.90;99.20;;;;;;5111987;28;20178;-70
2023/08/22 00:53:45;;;;;;;2.77;1.47;;;25.20;96.10;;;;;;5112698;28;20266;-71
2023/08/22 00:56:12;;;;;;;3.77;1.13;;;25.20;93.80;;;;;;5112847;28;20182;-70
2023/08/22 00:58:40;;;;;;;5.60;1.70;;;25.60;90.80;;;;;;5112383;28;20246;-69
2023/08/22 01:01:08;;;;;;;5.77;1.23;;;25.90;84.40;;;;;;5112566;28;20209;-70
2023/08/22 01:03:35;;;;;;;7.57;1.33;;;25.90;83.80;;;;;;5112816;28;20236;-69
2023/08/22 01:06:10;;;;;;;7.97;1.87;;;26.20;81.60;;;;;;5112061;28;20213;-69
2023/08/22 01:08:40;;;;;;;4.87;1.33;;;26.10;78.10;;;;;;5112522;28;20215;-71
2023/08/22 01:11:35;;;;;;;5.40;1.40;;;25.90;75.80;;;;;;5112338;28;20535;-71
2023/08/22 01:14:08;;;;;;;3.67;1.00;;;26.20;75.60;;;;;;5111923;28;20243;-68
2023/08/22 01:16:36;;;;;;;6.13;1.20;;;26.30;72.60;;;;;;5112781;28;20167;-69
2023/08/22 01:19:11;;;;;;;5.83;1.50;;;26.00;68.00;;;;;;5112678;28;20222;-69
2023/08/22 01:21:50;;;;;;;2.90;1.00;;;26.00;69.70;;;;;;5115115;28;20178;-71
2023/08/22 01:24:18;;;;;;;3.40;0.80;;;26.40;63.40;;;;;;5112828;28;20179;-69
2023/08/22 01:26:48;;;;;;;3.83;1.23;;;26.40;64.70;;;;;;5112467;28;20220;-69
2023/08/22 01:29:48;;;;;;;1.47;1.07;;;26.20;61.30;;;;;;5112091;28;20543;-70
2023/08/22 01:32:16;;;;;;;3.43;1.27;;;26.50;61.30;;;;;;5112468;28;20179;-70
2023/08/22 01:34:44;;;;;;;2.97;1.40;;;26.50;58.40;;;;;;5111818;28;20186;-69
2023/08/22 01:37:14;;;;;;;2.60;1.00;;;26.60;60.70;;;;;;5112207;28;20174;-68
2023/08/22 01:39:44;;;;;;;6.13;1.10;;;26.80;59.10;;;;;;5093842;28;20602;-71
2023/08/22 01:42:12;;;;;;;5.67;1.50;;;26.70;58.40;;;;;;5111871;28;20678;-69
2023/08/22 01:44:39;;;;;;;2.73;1.53;;;27.40;59.10;;;;;;5112412;28;20224;-69
2023/08/22 01:47:07;;;;;;;5.33;1.33;;;27.50;58.50;;;;;;5111860;28;20218;-71
2023/08/22 01:49:37;;;;;;;2.70;1.30;;;27.10;56.40;;;;;;5111656;28;20202;-69
2023/08/22 01:52:05;;;;;;;7.33;1.50;;;27.20;53.90;;;;;;5112003;28;20524;-69
2023/08/22 01:54:34;;;;;;;4.90;1.30;;;27.90;51.90;;;;;;5112164;28;20189;-69
2023/08/22 01:57:01;;;;;;;3.07;1.50;;;27.60;52.10;;;;;;5111679;28;20649;-69
2023/08/22 01:59:29;;;;;;;4.10;1.30;;;27.80;48.30;;;;;;5112138;28;20178;-71
2023/08/22 02:01:56;;;;;;;2.23;1.27;;;28.40;45.00;;;;;;5115677;28;20179;-69
2023/08/22 02:04:23;;;;;;;2.80;1.60;;;28.20;44.70;;;;;;5116109;28;20981;-68
2023/08/22 02:06:51;;;;;;;4.93;1.40;;;28.20;45.20;;;;;;5116190;28;20221;-68
2023/08/22 02:09:18;;;;;;;5.43;1.43;;;27.40;45.80;;;;;;5115633;28;20715;-68
2023/08/22 02:11:45;;;;;;;5.43;1.20;;;27.10;45.00;;;;;;5115610;28;20183;-68
2023/08/22 02:14:13;;;;;;;5.07;1.60;;;26.70;44.20;;;;;;5116173;28;20647;-69
2023/08/22 02:16:40;;;;;;;3.40;1.50;;;26.90;45.10;;;;;;5116393;28;20202;-68
2023/08/22 02:19:08;;;;;;;1.40;0.83;;;27.30;42.90;;;;;;5096733;28;20226;-68
2023/08/22 02:21:35;;;;;;;2.47;0.90;;;27.90;44.10;;;;;;5116190;28;20688;-69
2023/08/22 02:24:02;;;;;;;2.23;1.10;;;28.70;44.90;;;;;;5115960;28;20186;-69
2023/08/22 02:26:30;;;;;;;3.40;1.10;;;28.70;39.10;;;;;;5097319;28;20666;-68
2023/08/22 02:28:58;;;;;;;4.57;0.70;;;28.30;35.80;;;;;;5116015;28;20575;-69
2023/08/22 02:31:25;;;;;;;6.30;0.67;;;28.00;34.90;;;;;;5115708;28;20182;-68
2023/08/22 02:33:52;;;;;;;1.60;0.70;;;28.20;34.00;;;;;;5097109;28;20178;-68
2023/08/22 02:36:20;;;;;;;1.63;0.70;;;28.20;34.10;;;;;;5115347;28;20183;-68
2023/08/22 02:38:47;;;;;;;1.07;0.60;;;28.20;35.20;;;;;;5115604;28;20175;-69
2023/08/22 02:41:15;;;;;;;1.23;0.50;;;28.00;28.30;;;;;;5115348;28;20257;-70
2023/08/22 02:43:42;;;;;;;2.60;0.60;;;28.40;27.80;;;;;;5115683;28;20251;-69
2023/08/22 02:46:10;;;;;;;1.67;0.90;;;28.80;26.60;;;;;;5115323;28;20569;-69
2023/08/22 02:48:38;;;;;;;2.73;1.00;;;28.10;26.00;;;;;;5114821;28;20173;-68
2023/08/22 02:51:05;;;;;;;4.47;0.90;;;28.50;26.50;;;;;;5115394;28;20532;-69
2023/08/22 02:53:33;;;;;;;1.17;0.60;;;27.80;25.50;;;;;;5115411;28;20174;-69
2023/08/22 02:56:00;;;;;;;1.77;1.07;;;28.00;25.80;;;;;;5114962;28;20265;-69
2023/08/22 02:58:28;;;;;;;1.43;0.87;;;27.80;26.00;;;;;;5115121;28;20647;-68
2023/08/22 03:00:55;;;;;;;2.30;0.70;;;28.00;25.10;;;;;;5115188;28;20210;-69
2023/08/22 03:03:23;;;;;;;0.90;0.60;;;27.90;24.90;;;;;;5114588;28;20189;-69
2023/08/22 03:05:50;;;;;;;2.40;0.80;;;28.40;22.40;;;;;;5115126;28;20198;-69
2023/08/22 03:08:18;;;;;;;1.97;0.80;;;28.50;20.60;;;;;;5114510;28;20182;-69
2023/08/22 03:10:45;;;;;;;2.73;0.70;;;28.20;18.40;;;;;;5114704;28;20247;-69
2023/08/22 03:13:12;;;;;;;1.10;0.70;;;28.20;21.40;;;;;;5113576;28;20251;-68
2023/08/22 03:15:40;;;;;;;2.50;0.90;;;28.10;20.20;;;;;;5115123;28;20171;-69
2023/08/22 03:18:08;;;;;;;1.57;0.83;;;27.80;18.90;;;;;;5114152;28;20183;-68
2023/08/22 03:20:35;;;;;;;7.03;0.53;;;28.10;18.90;;;;;;5114732;28;20768;-70
2023/08/22 03:23:04;;;;;;;0.70;0.60;;;27.80;18.00;;;;;;5114842;28;20220;-69
2023/08/22 03:25:32;;;;;;;1.23;0.60;;;27.60;17.60;;;;;;5114298;28;20865;-69
2023/08/22 03:27:59;;;;;;;1.33;0.53;;;27.30;17.10;;;;;;5114450;28;20186;-70
2023/08/22 03:30:27;;;;;;;1.87;0.80;;;27.00;16.50;;;;;;5114566;28;20179;-69
2023/08/22 03:32:54;;;;;;;1.17;0.77;;;26.90;17.30;;;;;;5113983;28;20255;-68
2023/08/22 03:35:21;;;;;;;3.90;0.80;;;26.60;18.50;;;;;;5096087;28;20273;-69
2023/08/22 03:37:49;;;;;;;1.63;0.73;;;26.40;19.50;;;;;;5114161;28;20194;-68
2023/08/22 03:40:16;;;;;;;3.80;0.80;;;26.60;20.50;;;;;;5113669;28;20550;-69
2023/08/22 03:42:45;;;;;;;0.70;0.70;;;26.50;18.80;;;;;;5114250;28;20227;-69
2023/08/22 03:45:12;;;;;;;1.07;0.60;;;26.40;18.60;;;;;;5114272;28;20929;-71
2023/08/22 03:47:39;;;;;;;1.90;1.10;;;26.40;20.00;;;;;;5113493;28;20211;-69
2023/08/22 03:50:07;;;;;;;3.90;0.60;;;26.70;19.90;;;;;;5114398;28;20170;-70
2023/08/22 03:52:34;;;;;;;2.57;0.93;;;26.70;19.30;;;;;;5113959;28;20186;-70
2023/08/22 03:55:02;;;;;;;4.63;0.67;;;26.60;19.20;;;;;;5113297;28;20187;-71
2023/08/22 03:57:29;;;;;;;4.43;0.93;;;26.60;17.60;;;;;;5114173;28;20213;-71
2023/08/22 03:59:57;;;;;;;1.70;0.67;;;26.50;18.10;;;;;;5113635;28;20178;-70
2023/08/22 04:02:24;;;;;;;1.60;0.47;;;26.50;17.50;;;;;;5113576;28;20190;-72
2023/08/22 04:04:51;;;;;;;1.73;0.73;;;26.50;18.20;;;;;;5095135;28;20197;-71
2023/08/22 04:07:19;;;;;;;1.63;0.80;;;26.40;17.90;;;;;;5113375;28;20221;-70
2023/08/22 04:09:46;;;;;;;3.73;0.80;;;26.10;19.10;;;;;;5113219;28;20171;-70
2023/08/22 04:12:14;;;;;;;2.27;1.00;;;26.00;20.00;;;;;;5113838;28;20179;-71
2023/08/22 04:14:41;;;;;;;4.60;1.53;;;26.00;21.60;;;;;;5114001;28;20171;-69
2023/08/22 04:17:09;;;;;;;1.67;0.80;;;25.90;22.00;;;;;;5113159;28;20649;-71
2023/08/22 04:19:36;;;;;;;1.60;0.90;;;25.70;21.10;;;;;;5113295;28;20226;-69
2023/08/22 04:22:03;;;;;;;1.50;0.70;;;25.70;22.10;;;;;;5113513;28;20198;-70
2023/08/22 04:24:31;;;;;;;4.57;0.83;;;25.80;22.60;;;;;;5112413;28;20190;-69
2023/08/22 04:26:59;;;;;;;2.40;1.10;;;25.60;19.80;;;;;;5113575;28;20230;-69
2023/08/22 04:29:30;;;;;;;3.17;0.70;;;25.70;21.40;;;;;;5114022;28;20212;-69
2023/08/22 04:31:59;;;;;;;2.67;0.90;;;25.80;21.10;;;;;;5092282;28;20213;-70
2023/08/22 04:34:27;;;;;;;1.40;0.97;;;26.10;21.20;;;;;;5112512;28;20252;-69
2023/08/22 04:36:54;;;;;;;1.10;0.80;;;26.20;20.30;;;;;;5111944;28;20617;-70
2023/08/22 04:39:21;;;;;;;2.60;0.60;;;26.20;22.10;;;;;;5112286;28;20257;-68
2023/08/22 04:41:50;;;;;;;3.73;0.80;;;26.00;24.10;;;;;;5113064;28;20244;-68
2023/08/22 04:44:18;;;;;;;8.43;1.10;;;26.10;25.30;;;;;;5112786;28;20183;-68
2023/08/22 04:46:45;;;;;;;3.90;0.90;;;26.20;25.60;;;;;;5112342;28;20266;-67
2023/08/22 04:49:12;;;;;;;1.57;0.90;;;26.00;25.80;;;;;;5112924;28;20532;-68
2023/08/22 04:51:40;;;;;;;2.43;0.80;;;25.80;27.30;;;;;;5113207;28;20658;-68
2023/08/22 04:54:07;;;;;;;5.57;0.97;;;25.60;28.50;;;;;;5112479;28;20699;-69
2023/08/22 04:56:34;;;;;;;2.00;0.80;;;25.60;28.80;;;;;;5112994;28;20174;-69
2023/08/22 04:59:02;;;;;;;2.90;1.30;;;25.50;30.00;;;;;;5094438;28;20710;-70
2023/08/22 05:01:29;;;;;;;2.20;0.80;;;25.50;29.50;;;;;;5112053;28;20194;-69
2023/08/22 05:03:57;;;;;;;4.40;1.10;;;25.30;30.30;;;;;;5112860;28;20175;-70
2023/08/22 05:06:24;;;;;;;2.70;1.10;;;25.20;30.80;;;;;;5112787;28;20206;-70
2023/08/22 05:08:52;;;;;;;1.57;0.80;;;25.10;32.80;;;;;;5112191;28;20174;-70
2023/08/22 05:11:19;;;;;;;1.10;0.70;;;25.10;33.70;;;;;;5112698;28;20186;-69
2023/08/22 05:13:46;;;;;;;2.00;1.07;;;25.00;34.00;;;;;;5112636;28;20170;-68
2023/08/22 05:16:14;;;;;;;2.43;0.80;;;25.10;34.50;;;;;;5112299;28;20171;-68
2023/08/22 05:18:42;;;;;;;3.20;0.70;;;25.10;34.70;;;;;;5094328;28;20230;-70
2023/08/22 05:21:10;;;;;;;2.83;0.90;;;25.00;34.30;;;;;;5112624;28;20221;-69
2023/08/22 05:23:37;;;;;;;1.53;0.77;;;25.00;35.60;;;;;;5112243;28;20187;-67
2023/08/22 05:26:05;;;;;;;1.33;0.70;;;24.90;36.00;;;;;;5112534;28;20284;-69
2023/08/22 05:28:32;;;;;;;1.90;0.73;;;24.90;35.80;;;;;;5120720;27;20177;-68
2023/08/22 05:31:00;;;;;;;1.93;0.83;;;24.90;35.80;;;;;;5112023;28;20344;-68
2023/08/22 05:33:27;;;;;;;6.43;1.30;;;24.90;36.90;;;;;;5112372;28;20175;-69
2023/08/22 05:35:54;;;;;;;2.30;0.80;;;24.80;38.20;;;;;;5111874;28;20223;-69
2023/08/22 05:38:22;;;;;;;5.40;0.90;;;24.90;38.50;;;;;;5111771;28;20251;-69
2023/08/22 05:40:49;;;;;;;4.57;0.90;;;24.90;37.40;;;;;;5112561;28;20171;-69
2023/08/22 05:43:17;;;;;;;2.43;0.80;;;25.00;38.30;;;;;;5113243;28;20715;-69
2023/08/22 05:45:44;;;;;;;3.80;1.33;;;25.00;38.10;;;;;;5089854;28;20197;-68
2023/08/22 05:48:11;;;;;;;3.63;1.43;;;24.90;37.70;;;;;;5118928;28;20218;-67
2023/08/22 05:50:39;;;;;;;3.93;1.20;;;25.00;37.90;;;;;;5114570;28;20198;-69
2023/08/22 05:53:06;;;;;;;0.87;0.67;;;24.80;35.70;;;;;;5115212;28;20243;-69
2023/08/22 05:55:34;;;;;;;1.53;1.07;;;24.80;32.60;;;;;;5120936;28;20234;-68
2023/08/22 05:58:01;;;;;;;3.57;1.10;;;24.80;33.50;;;;;;5111956;28;20190;-69
2023/08/22 06:00:28;;;;;;;2.93;0.83;;;25.00;33.60;;;;;;5111910;28;20177;-67
2023/08/22 06:02:56;;;;;;;4.10;1.00;;;25.10;33.40;;;;;;5112083;28;20170;-69
2023/08/22 06:05:24;;;;;;;2.43;1.20;;;25.10;32.50;;;;;;5111643;28;20179;-71
2023/08/22 06:07:51;;;;;;;2.40;1.00;;;25.00;34.10;;;;;;5098612;28;20210;-69
2023/08/22 06:10:18;;;;;;;3.70;1.53;;;25.10;32.80;;;;;;5122670;28;20203;-69
2023/08/22 06:12:46;;;;;;;2.10;1.00;;;25.10;32.00;;;;;;5117516;28;20679;-70
2023/08/22 06:15:13;;;;;;;4.97;1.07;;;25.20;31.30;;;;;;5110737;28;20283;-69
2023/08/22 06:17:40;;;;;;;3.10;1.13;;;25.40;31.10;;;;;;5112218;28;20581;-69
2023/08/22 06:20:08;;;;;;;4.70;1.00;;;25.40;32.00;;;;;;5111372;28;20309;-70
2023/08/22 06:22:36;;;;;;;1.97;1.03;;;25.30;31.40;;;;;;5110777;28;20210;-68
2023/08/22 06:25:04;;;;;;;1.47;0.80;;;25.20;31.70;;;;;;5112142;28;20182;-69
2023/08/22 06:27:32;;;;;;;5.33;1.30;;;25.20;31.80;;;;;;5111769;28;20219;-69
2023/08/22 06:30:00;;;;;;;1.13;0.90;;;25.20;32.40;;;;;;5111727;28;20167;-69
2023/08/22 06:32:28;;;;;;;1.00;0.70;;;25.10;31.30;;;;;;5111783;28;20186;-69
2023/08/22 06:35:00;;;;;;;3.80;1.00;;;25.00;29.70;;;;;;5111981;28;20166;-70
2023/08/22 06:37:27;;;;;;;4.57;1.07;;;25.00;29.60;;;;;;5111394;28;20243;-67
2023/08/22 06:39:55;;;;;;;5.90;0.90;;;24.90;29.10;;;;;;5112223;28;20175;-68
2023/08/22 06:42:23;;;;;;;1.93;0.90;;;24.80;28.50;;;;;;5111394;28;20191;-68
2023/08/22 06:44:50;;;;;;;6.33;1.00;;;24.70;28.30;;;;;;5111857;28;20177;-69
2023/08/22 06:47:17;;;;;;;4.33;0.70;;;24.70;28.70;;;;;;5114021;28;20213;-70
2023/08/22 06:49:45;;;;;;;1.40;0.53;;;24.70;28.90;;;;;;5115149;28;20175;-69
2023/08/22 06:52:12;;;;;;;1.27;0.80;;;24.70;29.00;;;;;;5114145;28;20286;-69
2023/08/22 06:54:39;;;;;;;1.90;1.03;;;24.60;29.30;;;;;;5114447;28;20181;-69
2023/08/22 06:57:07;;;;;;;3.20;1.17;;;24.60;29.30;;;;;;5114866;28;20182;-68
2023/08/22 06:59:35;;;;;;;1.50;0.90;;;24.40;29.80;;;;;;5114452;28;20536;-69
2023/08/22 07:02:03;;;;;;;5.07;1.17;;;24.40;28.80;;;;;;5114562;28;20187;-70
2023/08/22 07:04:31;;;;;;;2.43;1.40;;;24.20;28.80;;;;;;5114082;28;20186;-69
2023/08/22 07:06:58;;;;;;;1.70;1.00;;;24.30;28.20;;;;;;5115366;27;20683;-69
2023/08/22 07:09:26;;;;;;;7.23;1.10;;;24.20;28.90;;;;;;5094108;28;20182;-69
2023/08/22 07:11:53;;;;;;;4.50;1.10;;;24.10;28.90;;;;;;5107169;28;20193;-70
2023/08/22 07:14:21;;;;;;;3.30;1.10;;;24.00;28.20;;;;;;5114261;28;20217;-70
2023/08/22 07:16:48;;;;;;;2.47;1.00;;;23.90;28.90;;;;;;5114496;28;20186;-70
2023/08/22 07:19:16;;;;;;;1.67;0.87;;;23.60;29.10;;;;;;5113824;28;20588;-70
2023/08/22 07:21:44;;;;;;;4.80;0.93;;;23.50;29.00;;;;;;5114992;28;20213;-70
2023/08/22 07:24:11;;;;;;;5.87;1.20;;;23.40;29.80;;;;;;5115423;28;20239;-70
2023/08/22 07:26:38;;;;;;;3.90;1.10;;;23.20;30.30;;;;;;5115493;28;20271;-70
2023/08/22 07:29:06;;;;;;;8.40;1.20;;;23.10;31.00;;;;;;5114310;28;20189;-68
2023/08/22 07:31:33;;;;;;;3.00;1.00;;;23.00;32.00;;;;;;5093162;28;20179;-70
2023/08/22 07:34:00;;;;;;;5.47;1.40;;;22.90;32.80;;;;;;5113846;28;20175;-70
2023/08/22 07:36:28;;;;;;;3.67;1.20;;;22.70;33.90;;;;;;5113735;28;20188;-69
2023/08/22 07:38:56;;;;;;;2.30;1.10;;;22.70;41.30;;;;;;5094472;28;20655;-68
2023/08/22 07:41:23;;;;;;;3.70;1.13;;;22.60;50.00;;;;;;5113704;28;20189;-69
2023/08/22 07:43:51;;;;;;;7.77;1.53;;;22.40;59.80;;;;;;5113409;28;20186;-69
2023/08/22 07:46:19;;;;;;;4.47;1.67;;;22.30;70.00;;;;;;5095101;28;20247;-69
2023/08/22 07:48:47;;;;;;;2.97;1.50;;;22.10;79.80;;;;;;5113767;28;20174;-69
2023/08/22 07:51:14;;;;;;;4.70;1.70;;;21.90;88.00;;;;;;5113239;28;20647;-68
2023/08/22 07:53:41;;;;;;;2.83;1.63;;;21.80;95.40;;;;;;5094625;28;20541;-69
2023/08/22 07:56:09;;;;;;;4.80;1.70;;;21.60;99.90;;;;;;5113441;28;20166;-70
2023/08/22 07:58:36;;;;;;;2.87;1.70;;;21.60;99.90;;;;;;5113294;28;20205;-69
2023/08/22 08:01:05;;;;;;;4.27;1.73;;;21.50;99.90;;;;;;5113654;28;20175;-71
2023/08/22 08:03:32;;;;;;;3.67;1.80;;;21.30;99.90;;;;;;5113466;28;20195;-69
2023/08/22 08:05:59;;;;;;;2.30;1.33;;;21.20;99.90;;;;;;5113948;28;20221;-71
2023/08/22 08:08:27;;;;;;;5.50;1.40;;;21.10;99.90;;;;;;5113308;28;20183;-70
2023/08/22 08:10:54;;;;;;;2.80;1.60;;;21.00;99.90;;;;;;5113693;28;20553;-69
2023/08/22 08:13:21;;;;;;;4.97;1.50;;;20.80;99.90;;;;;;5114059;28;20177;-70
2023/08/22 08:15:52;;;;;;;3.47;1.40;;;20.60;99.90;;;;;;5113490;28;20175;-71
2023/08/22 08:18:20;;;;;;;2.53;1.40;;;20.40;99.90;;;;;;5113666;28;20179;-70
2023/08/22 08:20:48;;;;;;;6.00;1.70;;;20.20;99.90;;;;;;5118986;27;20653;-69
2023/08/22 08:23:15;;;;;;;4.83;1.50;;;20.30;99.90;;;;;;5132879;27;20173;-70
2023/08/22 08:25:43;;;;;;;3.80;2.10;;;20.20;99.90;;;;;;5134264;27;20607;-71
2023/08/22 08:28:10;;;;;;;2.83;1.80;;;20.20;99.90;;;;;;5134213;27;20256;-70
2023/08/22 08:30:38;;;;;;;6.60;1.90;;;20.00;99.90;;;;;;5128444;27;20174;-71
2023/08/22 08:33:06;;;;;;;5.33;1.93;;;19.90;99.90;;;;;;5113564;28;20256;-67
2023/08/22 08:35:34;;;;;;;3.83;1.90;;;20.00;99.90;;;;;;5113749;28;20172;-71
2023/08/22 08:38:02;;;;;;;3.87;1.50;;;20.00;99.90;;;;;;5113033;28;20181;-70
2023/08/22 08:40:35;;;;;;;2.07;1.60;;;19.90;99.90;;;;;;5113337;28;20175;-70
2023/08/22 08:43:03;;;;;;;3.20;1.33;;;20.10;99.90;;;;;;5113247;28;20212;-71
2023/08/22 08:45:34;;;;;;;6.90;1.80;;;20.10;99.90;;;;;;5112861;28;20593;-70
2023/08/22 08:48:03;;;;;;;5.73;1.83;;;20.10;99.90;;;;;;5113044;28;20195;-69
2023/08/22 08:50:32;;;;;;;3.67;1.53;;;20.20;99.90;;;;;;5113148;28;20181;-70
2023/08/22 08:53:00;;;;;;;3.10;1.50;;;20.20;99.90;;;;;;5112836;28;20177;-71
2023/08/22 08:55:27;;;;;;;4.73;1.67;;;20.10;99.90;;;;;;5113397;28;20207;-70
2023/08/22 08:57:58;;;;;;;4.00;1.30;;;20.10;99.90;;;;;;5113136;28;20173;-70
2023/08/22 09:00:26;;;;;;;3.57;1.67;;;20.10;99.90;;;;;;5112407;28;20198;-70
2023/08/22 09:02:54;;;;;;;3.03;1.30;;;20.00;99.90;;;;;;5113195;28;20643;-71
2023/08/22 09:05:24;;;;;;;2.53;1.57;;;20.00;99.90;;;;;;5113029;28;20212;-69
2023/08/22 09:07:51;;;;;;;3.07;1.30;;;20.20;99.90;;;;;;5093959;28;20256;-69
2023/08/22 09:10:35;;;;;;;4.67;1.63;;;20.30;99.90;;;;;;5112104;28;20184;-70
2023/08/22 09:13:05;;;;;;;3.87;1.47;;;20.50;99.90;;;;;;5112754;28;20643;-72
2023/08/22 09:15:36;;;;;;;2.77;1.33;;;20.60;99.90;;;;;;5112671;28;20189;-71
2023/08/22 09:18:04;;;;;;;7.47;1.70;;;20.70;99.90;;;;;;5112965;28;20669;-70
2023/08/22 09:20:31;;;;;;;4.53;2.00;;;20.50;99.90;;;;;;5112440;28;20773;-69
2023/08/22 09:23:00;;;;;;;8.10;2.10;;;20.40;99.90;;;;;;5091868;28;20187;-70
2023/08/22 09:25:40;;;;;;;6.03;1.80;;;20.40;99.90;;;;;;5092449;28;20644;-70
2023/08/22 09:28:10;;;;;;;6.40;1.80;;;20.40;99.90;;;;;;5092303;28;20181;-69
2023/08/22 09:30:46;;;;;;;6.20;2.43;;;20.40;99.90;;;;;;5092652;28;20538;-70
2023/08/22 09:33:13;;;;;;;4.87;1.57;;;20.40;99.90;;;;;;5112545;28;20182;-70
2023/08/22 09:35:40;;;;;;;6.90;2.00;;;20.40;99.90;;;;;;5112505;28;20174;-70
2023/08/22 09:38:09;;;;;;;5.10;2.03;;;20.30;99.90;;;;;;5111847;28;20196;-70
2023/08/22 09:40:49;;;;;;;4.03;2.20;;;20.20;99.90;;;;;;5111676;28;20177;-69
2023/08/22 09:43:19;;;;;;;7.83;2.60;;;20.10;99.90;;;;;;5112776;28;20620;-69
2023/08/22 09:45:49;;;;;;;7.60;2.33;;;20.20;99.90;;;;;;5112748;28;20187;-72
2023/08/22 09:48:30;;;;;;;5.93;2.60;;;20.20;99.90;;;;;;5112969;28;20198;-69
2023/08/22 09:50:59;;;;;;;8.27;2.50;;;20.00;99.90;;;;;;5112696;28;20203;-69
2023/08/22 09:53:28;;;;;;;6.90;2.30;;;20.00;99.90;;;;;;5112367;28;20666;-69
2023/08/22 09:55:56;;;;;;;5.33;2.10;;;20.10;99.90;;;;;;5120629;28;20182;-69
2023/08/22 09:58:28;;;;;;;6.40;2.27;;;20.00;99.90;;;;;;5130540;28;20189;-68
2023/08/22 10:00:57;;;;;;;7.27;2.10;;;19.90;99.90;;;;;;5133508;28;20539;-69
2023/08/22 10:03:26;;;;;;;6.53;1.83;;;19.70;99.90;;;;;;5114887;28;20200;-70
2023/08/22 10:05:55;;;;;;;5.53;1.90;;;19.50;99.90;;;;;;5112044;28;20181;-68
2023/08/22 10:08:22;;;;;;;7.10;1.83;;;19.50;99.90;;;;;;5115434;28;20319;-69
2023/08/22 10:10:49;;;;;;;5.83;1.40;;;19.30;99.90;;;;;;5112428;28;20209;-67
2023/08/22 10:13:21;;;;;;;5.40;1.43;;;19.10;99.90;;;;;;5113122;28;20173;-69
2023/08/22 10:15:49;;;;;;;7.40;2.07;;;18.90;99.90;;;;;;5094928;28;20303;-68
2023/08/22 10:18:22;;;;;;;3.67;1.67;;;18.60;99.90;;;;;;5113048;28;20185;-70
2023/08/22 10:20:49;;;;;;;5.47;1.60;;;18.40;99.90;;;;;;5127398;27;20463;-69
2023/08/22 10:23:17;;;;;;;4.23;2.00;;;18.30;99.90;;;;;;5137696;27;20177;-70
2023/08/22 10:25:47;;;;;;;6.37;2.07;;;18.20;99.90;;;;;;5137186;27;20192;-68
2023/08/22 10:28:15;;;;;;;4.30;2.20;;;17.90;99.90;;;;;;5118927;27;20592;-70
2023/08/22 10:31:02;;;;;;;4.97;1.90;;;17.70;99.90;;;;;;5127987;27;20264;-69
2023/08/22 10:33:30;;;;;;;9.37;2.40;;;17.60;99.90;;;;;;5116812;27;20175;-71
2023/08/22 10:36:17;;;;;;;4.23;2.40;;;17.40;99.90;;;;;;5098312;28;20525;-69
2023/08/22 10:39:00;;;;;;;6.37;2.13;;;17.30;99.90;;;;;;5098385;28;20230;-69
2023/08/22 10:42:06;;;;;;;4.73;2.10;;;17.20;99.90;;;;;;5115876;28;20182;-70
2023/08/22 10:44:36;;;;;;;5.93;2.63;;;17.00;99.90;;;;;;5040283;28;20193;-70
2023/08/22 10:47:05;;;;;;;5.87;2.80;;;16.90;99.90;;;;;;5033594;28;20595;-70
2023/08/22 10:49:34;;;;;;;3.93;2.27;;;16.90;99.90;;;;;;5077166;28;20202;-70
2023/08/22 10:52:12;;;;;;;4.43;2.23;;;17.00;99.90;;;;;;5116352;28;20193;-68
2023/08/22 10:55:13;;;;;;;9.40;2.37;;;17.00;99.90;;;;;;5116501;28;20186;-71
2023/08/22 10:57:48;;;;;;;3.63;2.20;;;16.90;99.90;;;;;;5116181;28;20631;-69
2023/08/22 11:00:23;;;;;;;10.13;2.93;;;16.80;99.90;;;;;;5116387;28;20176;-68
2023/08/22 11:03:01;;;;;;;2.90;1.83;;;16.70;99.90;;;;;;5097282;28;20190;-70
2023/08/22 11:05:29;;;;;;;5.10;2.07;;;16.60;99.90;;;;;;5116002;28;20185;-70
2023/08/22 11:07:57;;;;;;;2.53;2.07;;;16.80;99.90;;;;;;5097580;28;20276;-70
2023/08/22 11:10:26;;;;;;;5.00;2.07;;;17.20;99.90;;;;;;5097291;28;20235;-71
2023/08/22 11:12:57;;;;;;;5.97;2.40;;;17.30;99.90;;;;;;5097479;28;20198;-68
2023/08/22 11:15:24;;;;;;;6.10;2.50;;;17.60;99.90;;;;;;5115306;28;20254;-70
2023/08/22 11:17:51;;;;;;;6.47;2.17;;;17.70;99.90;;;;;;5115375;28;20190;-71
2023/08/22 11:20:21;;;;;;;10.67;2.17;;;17.70;99.90;;;;;;5115456;28;20758;-71
2023/08/22 11:22:48;;;;;;;4.30;2.30;;;17.90;99.90;;;;;;5115507;28;20182;-68
2023/08/22 11:25:25;;;;;;;10.30;2.83;;;18.10;99.90;;;;;;5115763;28;20668;-68
2023/08/22 11:27:53;;;;;;;8.37;2.70;;;18.10;99.90;;;;;;5097340;28;21024;-71
2023/08/22 11:30:21;;;;;;;14.67;2.63;;;17.70;99.90;;;;;;5115231;28;20226;-68
2023/08/22 11:32:48;;;;;;;8.73;2.17;;;17.40;99.90;;;;;;5114520;28;20316;-67
2023/08/22 11:35:17;;;;;;;4.17;2.13;;;17.10;99.90;;;;;;5097104;28;20323;-68
2023/08/22 11:37:44;;;;;;;3.73;2.10;;;16.80;99.90;;;;;;5113990;28;20175;-68
2023/08/22 11:40:16;;;;;;;2.67;2.07;;;16.60;99.90;;;;;;5115139;28;20245;-68
2023/08/22 11:42:46;;;;;;;5.53;1.87;;;16.50;99.90;;;;;;5097050;28;20185;-70
2023/08/22 11:45:17;;;;;;;3.63;2.43;;;16.30;99.90;;;;;;5114837;28;20252;-70
2023/08/22 11:47:46;;;;;;;4.07;2.23;;;16.30;99.90;;;;;;5096544;28;20233;-69
2023/08/22 11:50:16;;;;;;;8.20;1.80;;;16.20;99.90;;;;;;5102748;28;20183;-69
2023/08/22 11:52:45;;;;;;;3.30;1.90;;;16.30;99.90;;;;;;5115089;28;20196;-70
2023/08/22 11:55:17;;;;;;;5.50;1.67;;;16.40;99.90;;;;;;5115047;28;20185;-69
2023/08/22 11:57:45;;;;;;;1.87;1.50;;;16.40;99.90;;;;;;5114847;28;20182;-69
2023/08/22 12:00:14;;;;;;;4.23;2.00;;;16.30;99.90;;;;;;5114832;28;20206;-70
2023/08/22 12:02:52;;;;;;;2.80;1.70;;;16.40;99.90;;;;;;5115200;28;20693;-68
2023/08/22 12:05:36;;;;;;;6.90;1.53;;;16.40;99.90;;;;;;5114678;28;20543;-69
2023/08/22 12:08:07;;;;;;;4.63;1.60;;;16.40;99.90;;;;;;5114456;28;20209;-69
2023/08/22 12:10:43;;;;;;;2.27;1.40;;;16.50;99.90;;;;;;5115020;28;20175;-69
2023/08/22 12:13:11;;;;;;;2.97;1.30;;;16.60;99.90;;;;;;5114823;28;20258;-70
2023/08/22 12:15:40;;;;;;;3.23;1.33;;;16.60;99.90;;;;;;5096651;28;20194;-69
2023/08/22 12:18:08;;;;;;;1.30;1.03;;;16.60;99.90;;;;;;5114613;28;20194;-70
2023/08/22 12:20:38;;;;;;;1.80;1.30;;;16.60;99.90;;;;;;5113659;28;20249;-69
2023/08/22 12:23:08;;;;;;;3.90;1.40;;;16.50;99.90;;;;;;5114482;28;20189;-69
2023/08/22 12:25:37;;;;;;;2.77;1.20;;;16.50;99.90;;;;;;5114506;28;20173;-69
2023/08/22 12:28:04;;;;;;;2.47;1.20;;;16.40;99.90;;;;;;5114232;28;20253;-69
2023/08/22 12:30:33;;;;;;;1.63;1.43;;;16.30;99.90;;;;;;5114402;28;20178;-68
2023/08/22 12:33:03;;;;;;;1.00;0.90;;;16.20;99.90;;;;;;5114239;28;20644;-69
2023/08/22 12:35:35;;;;;;;1.90;1.30;;;16.10;99.90;;;;;;5113976;28;20181;-69
2023/08/22 12:38:02;;;;;;;6.20;1.50;;;15.90;99.90;;;;;;5113925;28;20187;-69
2023/08/22 12:40:30;;;;;;;2.37;1.30;;;15.80;99.90;;;;;;5114158;28;20172;-69
2023/08/22 12:43:00;;;;;;;3.63;1.40;;;15.70;99.90;;;;;;5113988;28;20182;-69
2023/08/22 12:45:28;;;;;;;3.57;1.47;;;15.60;99.90;;;;;;5094466;28;20193;-69
2023/08/22 12:47:55;;;;;;;1.80;1.30;;;15.50;99.90;;;;;;5113372;28;20347;-69
2023/08/22 12:50:24;;;;;;;2.33;1.90;;;15.50;99.90;;;;;;5113519;28;20659;-69
2023/08/22 12:52:52;;;;;;;2.70;1.33;;;15.30;99.90;;;;;;5113620;28;20185;-70
2023/08/22 12:55:23;;;;;;;2.90;1.40;;;15.30;99.90;;;;;;5113333;28;20547;-69